Time;durP1;ratioP1;P1;durP2;ratioP2;P2;SDS_P1;SDS_P2;PMS_P1;PMS_P2;Temp;Humidity;BMP_temperature;BMP_pressure;BME280_temperature;BME280_humidity;BME280_pressure;Samples;Min_cycle;Max_cycle;Signal;HPM_P1;HPM_P2
2022/05/25 00:00:14;;;;;;;4.60;1.57;;;;;;;;;;5023180;28;20206;-70
2022/05/25 00:02:40;;;;;;;1.77;1.50;;;;;;;;;;5024035;28;20190;-69
2022/05/25 00:05:08;;;;;;;2.50;1.70;;;;;;;;;;5025781;28;20190;-69
2022/05/25 00:07:35;;;;;;;2.53;1.40;;;;;;;;;;5022705;28;20198;-69
2022/05/25 00:10:01;;;;;;;2.60;1.43;;;;;;;;;;5023041;28;20206;-69
2022/05/25 00:12:27;;;;;;;3.67;1.63;;;;;;;;;;5023715;28;20264;-70
2022/05/25 00:14:54;;;;;;;2.60;1.20;;;;;;;;;;5017851;28;20194;-69
2022/05/25 00:17:20;;;;;;;1.50;1.37;;;;;;;;;;5025560;28;20213;-70
2022/05/25 00:20:01;;;;;;;1.90;1.50;;;;;;;;;;5024676;28;20213;-69
2022/05/25 00:22:49;;;;;;;1.90;1.60;;;;;;;;;;5025465;28;20174;-69
2022/05/25 00:25:21;;;;;;;3.27;1.60;;;;;;;;;;5021736;28;20201;-69
2022/05/25 00:27:47;;;;;;;2.07;1.53;;;;;;;;;;5020958;28;20725;-70
2022/05/25 00:30:14;;;;;;;3.73;1.80;;;;;;;;;;5023586;28;20207;-69
2022/05/25 00:32:40;;;;;;;3.10;1.63;;;;;;;;;;5029749;28;20213;-69
2022/05/25 00:35:07;;;;;;;2.37;1.60;;;;;;;;;;5026041;28;20219;-70
2022/05/25 00:37:34;;;;;;;2.13;1.63;;;;;;;;;;5023108;28;20210;-70
2022/05/25 00:40:04;;;;;;;1.80;1.63;;;;;;;;;;5027025;28;20223;-70
2022/05/25 00:42:30;;;;;;;1.67;1.40;;;;;;;;;;5027518;28;20175;-69
2022/05/25 00:44:56;;;;;;;2.27;1.40;;;;;;;;;;5026330;28;20190;-70
2022/05/25 00:47:24;;;;;;;2.20;1.60;;;;;;;;;;5024436;28;20190;-70
2022/05/25 00:49:51;;;;;;;1.43;1.30;;;;;;;;;;5026180;28;20623;-70
2022/05/25 00:52:17;;;;;;;2.37;1.70;;;;;;;;;;5028438;28;20273;-69
2022/05/25 00:54:43;;;;;;;2.37;1.67;;;;;;;;;;5026686;28;20698;-70
2022/05/25 00:57:11;;;;;;;2.23;1.63;;;;;;;;;;5028434;28;20206;-69
2022/05/25 00:59:43;;;;;;;2.07;1.40;;;;;;;;;;5026460;28;20206;-70
2022/05/25 01:02:09;;;;;;;3.97;1.70;;;;;;;;;;5025657;28;20191;-69
2022/05/25 01:04:35;;;;;;;2.73;1.60;;;;;;;;;;5028213;28;20187;-69
2022/05/25 01:07:07;;;;;;;4.20;1.53;;;;;;;;;;5024266;28;20672;-70
2022/05/25 01:09:43;;;;;;;2.40;1.70;;;;;;;;;;5025692;28;20230;-69
2022/05/25 01:12:17;;;;;;;2.90;1.70;;;;;;;;;;5027787;28;20214;-70
2022/05/25 01:14:55;;;;;;;1.77;1.67;;;;;;;;;;5027583;28;20338;-69
2022/05/25 01:17:21;;;;;;;3.00;1.57;;;;;;;;;;5022226;28;20336;-70
2022/05/25 01:20:00;;;;;;;1.90;1.60;;;;;;;;;;5023005;28;20206;-69
2022/05/25 01:22:44;;;;;;;3.80;1.53;;;;;;;;;;5024860;28;20287;-70
2022/05/25 01:25:26;;;;;;;4.00;1.63;;;;;;;;;;5027560;28;20189;-69
2022/05/25 01:27:54;;;;;;;2.27;1.70;;;;;;;;;;5024965;28;20194;-69
2022/05/25 01:30:21;;;;;;;2.40;1.50;;;;;;;;;;5025790;28;20222;-69
2022/05/25 01:32:51;;;;;;;2.97;1.70;;;;;;;;;;5026012;28;20191;-69
2022/05/25 01:35:21;;;;;;;3.00;1.90;;;;;;;;;;5024152;28;20182;-70
2022/05/25 01:37:58;;;;;;;3.43;1.70;;;;;;;;;;5021414;28;20229;-69
2022/05/25 01:40:31;;;;;;;4.77;1.40;;;;;;;;;;5022925;28;20202;-69
2022/05/25 01:43:17;;;;;;;3.50;1.43;;;;;;;;;;5026314;28;20265;-70
2022/05/25 01:45:46;;;;;;;2.57;1.90;;;;;;;;;;5022885;28;20206;-69
2022/05/25 01:48:14;;;;;;;1.70;1.60;;;;;;;;;;5015669;28;20903;-69
2022/05/25 01:50:46;;;;;;;3.33;1.60;;;;;;;;;;5018578;28;20198;-70
2022/05/25 01:53:15;;;;;;;3.20;1.77;;;;;;;;;;5019772;28;20664;-69
2022/05/25 01:55:45;;;;;;;4.77;1.70;;;;;;;;;;5017573;28;20185;-69
2022/05/25 01:58:13;;;;;;;2.17;1.50;;;;;;;;;;5019030;28;20182;-69
2022/05/25 02:00:45;;;;;;;3.93;1.60;;;;;;;;;;5015421;28;20835;-69
2022/05/25 02:06:15;;;;;;;5.97;1.93;;;;;;;;;;5014747;28;20198;-69
2022/05/25 02:08:48;;;;;;;3.47;1.70;;;;;;;;;;5019973;28;20186;-68
2022/05/25 02:11:34;;;;;;;2.30;1.50;;;;;;;;;;5019326;28;20187;-69
2022/05/25 02:14:04;;;;;;;4.30;1.93;;;;;;;;;;5014896;28;20179;-69
2022/05/25 02:16:40;;;;;;;2.97;1.70;;;;;;;;;;5018263;28;20260;-68
2022/05/25 02:19:12;;;;;;;4.17;1.70;;;;;;;;;;5018313;28;20629;-69
2022/05/25 02:21:43;;;;;;;3.00;2.00;;;;;;;;;;5016085;28;20266;-68
2022/05/25 02:24:18;;;;;;;3.47;1.70;;;;;;;;;;5037979;28;20270;-69
2022/05/25 02:26:48;;;;;;;3.03;1.60;;;;;;;;;;5018403;28;20190;-69
2022/05/25 02:29:21;;;;;;;2.03;1.60;;;;;;;;;;5015752;28;20576;-69
2022/05/25 02:31:51;;;;;;;2.00;1.60;;;;;;;;;;5019611;28;20198;-69
2022/05/25 02:34:20;;;;;;;3.23;1.50;;;;;;;;;;5023077;28;20195;-69
2022/05/25 02:36:47;;;;;;;4.90;1.70;;;;;;;;;;5023300;28;20250;-68
2022/05/25 02:39:13;;;;;;;2.33;1.80;;;;;;;;;;5014271;28;20268;-69
2022/05/25 02:41:47;;;;;;;1.67;1.50;;;;;;;;;;5025657;28;20744;-69
2022/05/25 02:44:14;;;;;;;2.17;1.80;;;;;;;;;;5016606;28;20187;-69
2022/05/25 02:46:40;;;;;;;4.63;1.67;;;;;;;;;;5021814;28;20182;-68
2022/05/25 02:49:07;;;;;;;2.17;1.63;;;;;;;;;;5016858;28;20327;-68
2022/05/25 02:51:34;;;;;;;2.90;1.90;;;;;;;;;;5017523;28;20580;-69
2022/05/25 02:54:01;;;;;;;3.00;1.63;;;;;;;;;;5015897;28;20244;-69
2022/05/25 02:56:27;;;;;;;2.30;1.77;;;;;;;;;;5024277;28;20679;-69
2022/05/25 02:58:53;;;;;;;3.63;2.27;;;;;;;;;;5023463;28;20207;-69
2022/05/25 03:01:19;;;;;;;4.23;1.73;;;;;;;;;;5019781;28;20773;-68
2022/05/25 03:03:46;;;;;;;3.47;1.80;;;;;;;;;;5011851;28;20187;-68
2022/05/25 03:06:12;;;;;;;1.80;1.67;;;;;;;;;;5014307;28;20198;-68
2022/05/25 03:08:39;;;;;;;2.93;1.70;;;;;;;;;;5023912;28;20566;-69
2022/05/25 03:11:05;;;;;;;2.17;1.70;;;;;;;;;;5020659;28;20187;-69
2022/05/25 03:13:32;;;;;;;3.03;1.60;;;;;;;;;;5015672;28;20191;-69
2022/05/25 03:15:59;;;;;;;3.83;2.00;;;;;;;;;;5013786;28;20215;-69
2022/05/25 03:18:26;;;;;;;2.53;1.87;;;;;;;;;;5025204;28;20177;-67
2022/05/25 03:20:52;;;;;;;2.97;1.67;;;;;;;;;;5014198;28;20187;-68
2022/05/25 03:23:18;;;;;;;2.67;1.80;;;;;;;;;;5024425;28;20195;-69
2022/05/25 03:25:45;;;;;;;4.60;2.00;;;;;;;;;;5021908;28;20187;-69
2022/05/25 03:28:12;;;;;;;2.00;1.70;;;;;;;;;;5017800;28;20202;-70
2022/05/25 03:30:38;;;;;;;3.93;2.00;;;;;;;;;;5025298;28;20634;-68
2022/05/25 03:33:04;;;;;;;4.13;1.70;;;;;;;;;;5027381;28;20186;-68
2022/05/25 03:35:31;;;;;;;2.23;1.73;;;;;;;;;;5015485;28;20229;-69
2022/05/25 03:37:58;;;;;;;2.63;2.00;;;;;;;;;;5022955;28;20684;-68
2022/05/25 03:40:24;;;;;;;3.43;2.00;;;;;;;;;;5019986;28;20210;-68
2022/05/25 03:42:51;;;;;;;3.27;1.80;;;;;;;;;;5019744;28;20221;-68
2022/05/25 03:45:17;;;;;;;2.47;1.77;;;;;;;;;;5023261;28;20646;-68
2022/05/25 03:47:44;;;;;;;2.70;1.90;;;;;;;;;;5016081;28;20190;-69
2022/05/25 03:50:10;;;;;;;3.23;1.77;;;;;;;;;;5025347;28;20254;-69
2022/05/25 03:52:37;;;;;;;1.73;1.50;;;;;;;;;;5016698;28;20692;-68
2022/05/25 03:55:03;;;;;;;2.03;1.80;;;;;;;;;;5020114;28;20193;-68
2022/05/25 03:57:30;;;;;;;2.10;1.67;;;;;;;;;;5018654;28;20210;-68
2022/05/25 03:59:57;;;;;;;2.20;1.73;;;;;;;;;;5019697;28;20210;-68
2022/05/25 04:02:23;;;;;;;1.90;1.60;;;;;;;;;;5024971;28;20308;-69
2022/05/25 04:05:07;;;;;;;2.63;1.70;;;;;;;;;;5018778;28;20273;-69
2022/05/25 04:07:37;;;;;;;2.83;1.67;;;;;;;;;;5024335;28;20756;-69
2022/05/25 04:10:05;;;;;;;1.73;1.63;;;;;;;;;;5021248;28;20737;-69
2022/05/25 04:12:32;;;;;;;4.23;1.77;;;;;;;;;;5022757;28;20190;-67
2022/05/25 04:14:58;;;;;;;2.47;2.00;;;;;;;;;;5025294;28;20214;-69
2022/05/25 04:17:24;;;;;;;2.87;1.70;;;;;;;;;;5023216;28;20284;-68
2022/05/25 04:19:50;;;;;;;3.83;1.87;;;;;;;;;;5013795;28;20202;-69
2022/05/25 04:22:17;;;;;;;3.70;1.70;;;;;;;;;;5018817;28;20467;-68
2022/05/25 04:24:43;;;;;;;2.07;1.70;;;;;;;;;;5020950;28;20272;-69
2022/05/25 04:27:09;;;;;;;4.00;2.00;;;;;;;;;;5014939;28;20209;-69
2022/05/25 04:29:39;;;;;;;2.33;1.73;;;;;;;;;;5025402;28;20951;-69
2022/05/25 04:32:06;;;;;;;4.07;1.70;;;;;;;;;;5019469;28;20658;-69
2022/05/25 04:34:33;;;;;;;3.47;2.00;;;;;;;;;;5018379;28;20300;-69
2022/05/25 04:37:48;;;;;;;2.27;1.50;;;;;;;;;;5011636;28;20822;-69
2022/05/25 04:39:45;;;;;;;3.10;1.60;;;;;;;;;;5018605;28;20202;-69
2022/05/25 04:42:12;;;;;;;2.97;1.90;;;;;;;;;;5020427;28;20212;-70
2022/05/25 04:44:38;;;;;;;3.37;2.00;;;;;;;;;;5016509;28;20189;-69
2022/05/25 04:47:08;;;;;;;2.47;1.80;;;;;;;;;;5016468;28;20281;-69
2022/05/25 04:49:34;;;;;;;4.13;1.90;;;;;;;;;;5019721;28;20206;-69
2022/05/25 04:52:01;;;;;;;3.43;1.80;;;;;;;;;;5010139;28;20295;-68
2022/05/25 04:54:27;;;;;;;3.47;1.97;;;;;;;;;;5014370;28;20187;-69
2022/05/25 04:59:38;;;;;;;3.70;1.90;;;;;;;;;;5015720;28;20206;-68
2022/05/25 05:02:05;;;;;;;4.17;1.67;;;;;;;;;;5033438;28;20669;-69
2022/05/25 05:04:32;;;;;;;2.47;1.67;;;;;;;;;;5011631;28;20237;-69
2022/05/25 05:06:58;;;;;;;3.40;1.97;;;;;;;;;;5014019;28;20192;-69
2022/05/25 05:09:25;;;;;;;4.10;2.03;;;;;;;;;;5010143;28;20207;-69
2022/05/25 05:11:51;;;;;;;2.53;2.20;;;;;;;;;;5014288;28;20727;-69
2022/05/25 05:14:17;;;;;;;4.13;2.20;;;;;;;;;;5012199;28;20274;-73
2022/05/25 05:16:43;;;;;;;2.67;2.10;;;;;;;;;;5020190;28;20210;-75
2022/05/25 05:19:21;;;;;;;3.03;2.23;;;;;;;;;;5018413;28;20526;-74
2022/05/25 05:22:10;;;;;;;3.03;2.20;;;;;;;;;;5018657;28;20200;-74
2022/05/25 05:24:36;;;;;;;2.27;1.93;;;;;;;;;;5027727;28;20182;-75
2022/05/25 05:27:04;;;;;;;3.90;2.10;;;;;;;;;;5026094;28;20255;-74
2022/05/25 05:29:30;;;;;;;2.93;2.00;;;;;;;;;;5022651;28;20618;-75
2022/05/25 05:31:58;;;;;;;4.40;2.50;;;;;;;;;;5032573;28;20565;-76
2022/05/25 05:34:27;;;;;;;3.27;2.77;;;;;;;;;;5018143;28;20183;-78
2022/05/25 05:36:58;;;;;;;3.57;3.27;;;;;;;;;;5028229;28;20483;-73
2022/05/25 05:39:26;;;;;;;3.93;2.93;;;;;;;;;;5017516;28;20202;-75
2022/05/25 05:41:56;;;;;;;3.30;2.53;;;;;;;;;;5027097;28;20879;-74
2022/05/25 05:44:25;;;;;;;3.33;2.40;;;;;;;;;;5020783;28;20714;-76
2022/05/25 05:46:52;;;;;;;2.67;2.37;;;;;;;;;;5026023;28;20175;-74
2022/05/25 05:49:18;;;;;;;6.70;2.40;;;;;;;;;;5016851;28;20666;-74
2022/05/25 05:51:44;;;;;;;3.37;1.90;;;;;;;;;;5027209;28;20202;-74
2022/05/25 05:54:11;;;;;;;4.27;2.00;;;;;;;;;;5025921;28;20633;-73
2022/05/25 05:56:37;;;;;;;2.57;2.10;;;;;;;;;;5029952;28;20210;-73
2022/05/25 05:59:04;;;;;;;1.93;1.77;;;;;;;;;;5027630;28;20686;-73
2022/05/25 06:01:30;;;;;;;2.53;1.97;;;;;;;;;;5025777;28;20278;-77
2022/05/25 06:03:56;;;;;;;2.00;1.80;;;;;;;;;;5038924;28;20222;-74
2022/05/25 06:06:23;;;;;;;2.40;1.70;;;;;;;;;;5020219;28;20187;-74
2022/05/25 06:08:50;;;;;;;2.30;1.70;;;;;;;;;;5018239;28;20290;-75
2022/05/25 06:11:41;;;;;;;2.90;1.80;;;;;;;;;;5016448;28;20195;-74
2022/05/25 06:14:08;;;;;;;3.30;2.13;;;;;;;;;;5025018;28;20268;-75
2022/05/25 06:19:25;;;;;;;4.83;2.30;;;;;;;;;;5022023;28;20701;-75
2022/05/25 06:21:57;;;;;;;3.17;1.97;;;;;;;;;;5024227;28;20247;-75
2022/05/25 06:24:23;;;;;;;3.10;2.03;;;;;;;;;;5021175;28;20175;-74
2022/05/25 06:26:49;;;;;;;2.70;1.83;;;;;;;;;;5026736;28;20190;-74
2022/05/25 06:29:17;;;;;;;3.97;2.00;;;;;;;;;;5025691;28;20219;-74
2022/05/25 06:31:43;;;;;;;3.43;2.10;;;;;;;;;;5022054;28;20317;-74
2022/05/25 06:34:10;;;;;;;2.97;1.90;;;;;;;;;;5022517;28;20195;-76
2022/05/25 06:36:36;;;;;;;3.40;1.77;;;;;;;;;;5023549;28;20206;-73
2022/05/25 06:39:03;;;;;;;4.33;1.90;;;;;;;;;;5022632;28;20205;-70
2022/05/25 06:41:29;;;;;;;2.20;2.00;;;;;;;;;;5019105;28;20261;-71
2022/05/25 06:43:56;;;;;;;2.93;2.03;;;;;;;;;;5015885;28;20214;-70
2022/05/25 06:46:22;;;;;;;2.00;1.80;;;;;;;;;;5012996;28;20298;-71
2022/05/25 06:48:50;;;;;;;2.47;1.93;;;;;;;;;;5013157;28;20218;-70
2022/05/25 06:51:27;;;;;;;2.47;2.00;;;;;;;;;;5023263;28;20306;-70
2022/05/25 06:53:55;;;;;;;4.10;2.00;;;;;;;;;;5023372;28;20305;-71
2022/05/25 06:56:24;;;;;;;3.73;2.23;;;;;;;;;;5027147;28;20791;-70
2022/05/25 06:58:51;;;;;;;2.70;2.00;;;;;;;;;;5019888;28;20234;-71
2022/05/25 07:01:17;;;;;;;5.10;2.00;;;;;;;;;;5027727;28;20202;-70
2022/05/25 07:03:43;;;;;;;3.47;2.00;;;;;;;;;;5011953;28;20266;-70
2022/05/25 07:06:10;;;;;;;3.00;2.50;;;;;;;;;;5031709;28;20697;-72
2022/05/25 07:08:36;;;;;;;2.77;2.27;;;;;;;;;;5022209;28;20186;-70
2022/05/25 07:11:03;;;;;;;3.23;2.30;;;;;;;;;;5027461;28;20195;-71
2022/05/25 07:13:30;;;;;;;4.57;2.40;;;;;;;;;;5020632;28;20248;-70
2022/05/25 07:15:58;;;;;;;4.03;2.50;;;;;;;;;;5024932;28;20195;-73
2022/05/25 07:18:26;;;;;;;5.30;2.80;;;;;;;;;;5022886;28;20554;-70
2022/05/25 07:20:52;;;;;;;3.57;2.73;;;;;;;;;;5018418;28;20190;-70
2022/05/25 07:23:24;;;;;;;3.13;2.53;;;;;;;;;;5013519;28;20187;-70
2022/05/25 07:25:50;;;;;;;4.70;2.30;;;;;;;;;;5018840;28;20187;-70
2022/05/25 07:28:17;;;;;;;4.33;2.17;;;;;;;;;;5021055;28;20272;-71
2022/05/25 07:30:43;;;;;;;3.30;2.60;;;;;;;;;;5024233;28;20213;-71
2022/05/25 07:33:09;;;;;;;4.93;2.70;;;;;;;;;;5013411;28;20191;-71
2022/05/25 07:35:37;;;;;;;3.00;2.67;;;;;;;;;;5026217;28;20586;-71
2022/05/25 07:38:03;;;;;;;4.23;2.53;;;;;;;;;;5020125;28;20230;-70
2022/05/25 07:40:32;;;;;;;4.07;2.50;;;;;;;;;;5022158;28;20213;-71
2022/05/25 07:43:00;;;;;;;4.10;2.20;;;;;;;;;;5019327;28;20193;-71
2022/05/25 07:45:26;;;;;;;2.97;1.80;;;;;;;;;;5030680;28;20264;-71
2022/05/25 07:47:54;;;;;;;2.87;1.97;;;;;;;;;;5027715;28;20666;-71
2022/05/25 07:50:22;;;;;;;3.50;2.00;;;;;;;;;;5011088;28;20261;-70
2022/05/25 07:52:49;;;;;;;5.77;2.50;;;;;;;;;;5008213;28;20662;-70
2022/05/25 07:55:15;;;;;;;3.40;2.33;;;;;;;;;;5025650;28;20198;-71
2022/05/25 07:57:42;;;;;;;3.13;1.90;;;;;;;;;;5020258;28;20206;-71
2022/05/25 08:00:08;;;;;;;3.43;1.80;;;;;;;;;;5027326;28;20253;-71
2022/05/25 08:08:14;;;;;;;5.03;1.83;;;;;;;;;;5023088;28;20225;-71
2022/05/25 08:10:41;;;;;;;2.37;1.70;;;;;;;;;;5027484;28;20263;-71
2022/05/25 08:13:07;;;;;;;3.67;2.27;;;;;;;;;;5026502;28;20213;-71
2022/05/25 08:15:33;;;;;;;3.73;1.80;;;;;;;;;;5027729;28;20212;-71
2022/05/25 08:18:00;;;;;;;2.47;2.10;;;;;;;;;;5027522;28;20757;-71
2022/05/25 08:20:28;;;;;;;3.83;2.27;;;;;;;;;;5018365;28;20207;-71
2022/05/25 08:22:54;;;;;;;4.43;2.30;;;;;;;;;;5023712;28;20241;-71
2022/05/25 08:25:20;;;;;;;5.83;2.57;;;;;;;;;;5008052;28;20602;-71
2022/05/25 08:27:46;;;;;;;3.90;2.30;;;;;;;;;;5017266;28;20199;-70
2022/05/25 08:30:17;;;;;;;3.63;2.00;;;;;;;;;;5026776;28;20216;-71
2022/05/25 08:32:43;;;;;;;3.33;1.50;;;;;;;;;;5027831;28;20273;-75
2022/05/25 08:35:10;;;;;;;2.60;1.30;;;;;;;;;;5026590;28;21159;-71
2022/05/25 08:37:37;;;;;;;3.30;1.23;;;;;;;;;;5038858;28;20209;-71
2022/05/25 08:40:04;;;;;;;2.13;1.23;;;;;;;;;;5022226;28;20215;-71
2022/05/25 08:42:31;;;;;;;4.17;1.23;;;;;;;;;;5015753;28;20289;-71
2022/05/25 08:44:58;;;;;;;1.83;1.00;;;;;;;;;;5023231;28;20562;-71
2022/05/25 08:47:24;;;;;;;2.40;0.90;;;;;;;;;;5016276;28;20203;-71
2022/05/25 08:49:51;;;;;;;2.37;1.20;;;;;;;;;;5024268;28;20206;-71
2022/05/25 08:52:37;;;;;;;2.13;1.10;;;;;;;;;;5020839;28;20221;-70
2022/05/25 08:55:06;;;;;;;2.03;1.10;;;;;;;;;;5024036;28;20193;-71
2022/05/25 08:57:47;;;;;;;2.33;1.10;;;;;;;;;;5024018;28;20569;-71
2022/05/25 09:00:16;;;;;;;2.93;1.03;;;;;;;;;;5028657;28;20296;-70
2022/05/25 09:02:51;;;;;;;1.77;1.10;;;;;;;;;;5015807;28;20320;-71
2022/05/25 09:05:23;;;;;;;1.47;0.90;;;;;;;;;;5029472;28;20182;-71
2022/05/25 09:08:02;;;;;;;2.07;1.23;;;;;;;;;;5023081;28;20194;-71
2022/05/25 09:10:30;;;;;;;4.77;1.10;;;;;;;;;;5029768;28;20202;-71
2022/05/25 09:13:04;;;;;;;2.97;1.30;;;;;;;;;;5014815;28;20174;-71
2022/05/25 09:15:35;;;;;;;2.50;1.10;;;;;;;;;;5021881;28;20182;-71
2022/05/25 09:18:03;;;;;;;3.53;1.13;;;;;;;;;;5030507;28;20199;-71
2022/05/25 09:20:32;;;;;;;1.73;0.90;;;;;;;;;;5024169;28;20198;-71
2022/05/25 09:22:58;;;;;;;2.60;1.27;;;;;;;;;;5020474;28;20183;-71
2022/05/25 09:25:25;;;;;;;2.00;1.10;;;;;;;;;;5028677;28;20185;-71
2022/05/25 09:28:03;;;;;;;2.03;1.10;;;;;;;;;;5023719;28;20175;-71
2022/05/25 09:30:32;;;;;;;1.47;0.90;;;;;;;;;;5027106;28;20263;-71
2022/05/25 09:33:27;;;;;;;1.20;0.90;;;;;;;;;;5021618;28;20265;-71
2022/05/25 09:36:00;;;;;;;2.17;1.10;;;;;;;;;;5012945;28;20210;-70
2022/05/25 09:38:46;;;;;;;1.77;0.90;;;;;;;;;;5019227;28;20266;-71
2022/05/25 09:41:13;;;;;;;2.10;1.10;;;;;;;;;;5021590;28;20189;-71
2022/05/25 09:43:40;;;;;;;2.97;1.20;;;;;;;;;;5029543;28;20182;-71
2022/05/25 09:46:09;;;;;;;1.20;0.90;;;;;;;;;;5024232;28;20183;-71
2022/05/25 09:48:41;;;;;;;3.37;1.00;;;;;;;;;;5019147;28;20703;-70
2022/05/25 09:51:23;;;;;;;2.57;1.00;;;;;;;;;;5018614;28;20237;-71
2022/05/25 09:54:05;;;;;;;1.80;1.00;;;;;;;;;;5023871;28;20260;-71
2022/05/25 09:56:33;;;;;;;5.77;1.17;;;;;;;;;;5011222;28;20210;-70
2022/05/25 09:59:04;;;;;;;2.23;1.00;;;;;;;;;;5032764;28;20205;-71
2022/05/25 10:01:33;;;;;;;3.80;1.03;;;;;;;;;;5035104;28;20564;-70
2022/05/25 10:04:01;;;;;;;1.63;0.97;;;;;;;;;;5027358;28;20182;-72
2022/05/25 10:06:28;;;;;;;3.27;0.97;;;;;;;;;;5019834;28;20190;-71
2022/05/25 10:09:17;;;;;;;2.43;1.00;;;;;;;;;;5018531;28;20209;-71
2022/05/25 10:11:48;;;;;;;1.80;1.00;;;;;;;;;;5024547;28;20746;-71
2022/05/25 10:14:26;;;;;;;1.70;0.80;;;;;;;;;;5026798;28;20198;-74
2022/05/25 10:16:54;;;;;;;1.50;1.10;;;;;;;;;;5025735;28;20201;-74
2022/05/25 10:19:21;;;;;;;2.93;1.10;;;;;;;;;;5034538;28;20203;-75
2022/05/25 10:21:53;;;;;;;1.73;0.90;;;;;;;;;;5018891;28;20214;-73
2022/05/25 10:24:25;;;;;;;1.60;0.97;;;;;;;;;;5018930;28;20191;-73
2022/05/25 10:27:14;;;;;;;2.37;1.10;;;;;;;;;;5020055;28;20746;-73
2022/05/25 10:38:20;;;;;;;4.77;1.20;;;;;;;;;;5022617;28;20214;-72
2022/05/25 10:40:47;;;;;;;1.90;1.40;;;;;;;;;;5023745;28;20209;-72
2022/05/25 10:43:17;;;;;;;3.77;1.10;;;;;;;;;;5024203;28;20190;-75
2022/05/25 10:45:51;;;;;;;1.73;1.00;;;;;;;;;;5018369;28;20210;-73
2022/05/25 10:48:44;;;;;;;1.97;1.13;;;;;;;;;;5023879;28;20187;-73
2022/05/25 10:51:15;;;;;;;1.80;1.00;;;;;;;;;;5013261;28;20292;-72
2022/05/25 10:53:43;;;;;;;1.60;0.80;;;;;;;;;;5019428;28;20190;-71
2022/05/25 10:56:28;;;;;;;1.33;0.80;;;;;;;;;;5016279;28;20975;-71
2022/05/25 10:58:54;;;;;;;1.43;0.97;;;;;;;;;;5024384;28;20386;-71
2022/05/25 11:01:39;;;;;;;1.73;0.87;;;;;;;;;;5014670;28;20203;-71
2022/05/25 11:04:20;;;;;;;1.30;0.80;;;;;;;;;;5013744;28;20205;-71
2022/05/25 11:06:59;;;;;;;2.77;1.00;;;;;;;;;;5014067;28;21003;-71
2022/05/25 11:09:34;;;;;;;2.80;1.00;;;;;;;;;;5017403;28;20214;-71
2022/05/25 11:12:07;;;;;;;2.00;1.10;;;;;;;;;;5024920;28;20185;-71
2022/05/25 11:14:41;;;;;;;1.83;1.00;;;;;;;;;;5011321;28;20249;-71
2022/05/25 11:17:27;;;;;;;1.63;1.00;;;;;;;;;;5018236;28;20217;-71
2022/05/25 11:19:58;;;;;;;1.67;1.10;;;;;;;;;;5023683;28;20578;-71
2022/05/25 11:22:30;;;;;;;1.60;1.03;;;;;;;;;;5015674;28;20666;-71
2022/05/25 11:25:09;;;;;;;2.37;1.10;;;;;;;;;;5009540;28;20183;-71
2022/05/25 11:27:54;;;;;;;1.30;0.97;;;;;;;;;;5021613;28;20668;-74
2022/05/25 11:30:39;;;;;;;3.90;1.10;;;;;;;;;;5019403;28;20210;-74
2022/05/25 11:33:13;;;;;;;2.97;1.00;;;;;;;;;;5020763;28;20569;-75
2022/05/25 11:35:44;;;;;;;1.97;0.90;;;;;;;;;;5019612;28;20186;-76
2022/05/25 11:38:11;;;;;;;1.20;0.90;;;;;;;;;;5027718;28;20575;-75
2022/05/25 11:40:51;;;;;;;0.83;0.73;;;;;;;;;;5017291;28;20360;-76
2022/05/25 11:43:36;;;;;;;1.60;0.70;;;;;;;;;;5022990;28;20213;-74
2022/05/25 11:46:07;;;;;;;1.73;1.00;;;;;;;;;;5015343;28;20276;-73
2022/05/25 11:48:46;;;;;;;1.30;0.90;;;;;;;;;;5014749;28;20191;-72
2022/05/25 11:51:25;;;;;;;2.67;0.90;;;;;;;;;;5018034;28;20252;-72
2022/05/25 11:54:10;;;;;;;1.07;0.83;;;;;;;;;;5017840;28;20191;-72
2022/05/25 11:56:45;;;;;;;1.60;0.70;;;;;;;;;;5023612;28;20229;-73
2022/05/25 11:59:20;;;;;;;1.80;0.83;;;;;;;;;;5018909;28;20202;-73
2022/05/25 12:01:57;;;;;;;1.40;0.67;;;;;;;;;;5022132;28;20707;-72
2022/05/25 12:04:32;;;;;;;2.07;0.87;;;;;;;;;;5012707;28;20256;-72
2022/05/25 12:07:01;;;;;;;4.03;0.87;;;;;;;;;;5024092;28;20193;-72
2022/05/25 12:09:40;;;;;;;2.90;0.80;;;;;;;;;;5021587;28;20271;-72
2022/05/25 12:12:15;;;;;;;1.87;0.80;;;;;;;;;;5037457;28;20181;-72
2022/05/25 12:14:41;;;;;;;1.40;0.83;;;;;;;;;;5026940;28;20658;-72
2022/05/25 12:17:31;;;;;;;4.03;0.97;;;;;;;;;;5027312;28;20213;-72
2022/05/25 12:19:59;;;;;;;1.03;0.70;;;;;;;;;;5002787;28;20279;-72
2022/05/25 12:22:30;;;;;;;2.37;1.00;;;;;;;;;;5020153;28;20187;-72
2022/05/25 12:24:59;;;;;;;2.30;0.83;;;;;;;;;;5010935;28;20526;-72
2022/05/25 12:27:30;;;;;;;1.37;0.80;;;;;;;;;;5020713;28;20316;-72
2022/05/25 12:30:17;;;;;;;1.07;0.80;;;;;;;;;;5021884;28;20241;-72
2022/05/25 12:32:44;;;;;;;1.13;0.93;;;;;;;;;;5006660;28;20725;-72
2022/05/25 12:35:12;;;;;;;1.30;0.70;;;;;;;;;;5029227;28;20186;-72
2022/05/25 12:37:40;;;;;;;2.00;0.97;;;;;;;;;;5027899;28;20616;-71
2022/05/25 12:40:07;;;;;;;1.40;0.83;;;;;;;;;;5027074;28;20241;-71
2022/05/25 12:42:35;;;;;;;2.73;0.80;;;;;;;;;;5029858;28;20221;-71
2022/05/25 12:50:42;;;;;;;1.40;0.83;;;;;;;;;;5021766;28;20215;-72
2022/05/25 12:53:21;;;;;;;0.97;0.73;;;;;;;;;;5029412;28;20182;-71
2022/05/25 12:55:57;;;;;;;2.43;0.77;;;;;;;;;;5028722;28;20191;-71
2022/05/25 12:58:32;;;;;;;1.53;0.80;;;;;;;;;;5017767;28;20378;-71
2022/05/25 13:01:05;;;;;;;1.80;0.83;;;;;;;;;;5023326;28;20245;-71
2022/05/25 13:03:46;;;;;;;1.23;0.80;;;;;;;;;;5011773;28;20190;-71
2022/05/25 13:06:14;;;;;;;2.00;1.00;;;;;;;;;;5028586;28;20568;-71
2022/05/25 13:08:49;;;;;;;2.53;0.87;;;;;;;;;;5027093;28;20241;-71
2022/05/25 13:11:36;;;;;;;1.27;0.80;;;;;;;;;;5019987;28;20193;-71
2022/05/25 13:14:02;;;;;;;1.80;0.90;;;;;;;;;;5021208;28;20961;-71
2022/05/25 13:16:47;;;;;;;2.00;0.90;;;;;;;;;;5024855;28;20251;-71
2022/05/25 13:19:18;;;;;;;4.00;0.93;;;;;;;;;;5026720;28;20213;-72
2022/05/25 13:22:06;;;;;;;1.73;0.90;;;;;;;;;;5026394;28;20680;-72
2022/05/25 13:24:32;;;;;;;1.40;0.80;;;;;;;;;;5028136;28;20697;-72
2022/05/25 13:27:11;;;;;;;0.80;0.80;;;;;;;;;;5028650;28;20270;-72
2022/05/25 13:29:48;;;;;;;1.50;0.90;;;;;;;;;;5022842;28;20211;-71
2022/05/25 13:32:21;;;;;;;1.70;0.90;;;;;;;;;;5025685;28;20546;-72
2022/05/25 13:34:47;;;;;;;2.27;0.80;;;;;;;;;;5028505;28;20205;-72
2022/05/25 13:37:14;;;;;;;1.93;0.93;;;;;;;;;;5024578;28;20283;-72
2022/05/25 13:39:41;;;;;;;1.80;0.90;;;;;;;;;;5022757;28;20192;-72
2022/05/25 13:42:12;;;;;;;1.90;1.07;;;;;;;;;;5025554;28;20183;-72
2022/05/25 13:44:42;;;;;;;2.83;0.90;;;;;;;;;;5019978;28;20189;-73
2022/05/25 13:47:08;;;;;;;4.00;0.90;;;;;;;;;;5019394;28;20198;-72
2022/05/25 13:49:38;;;;;;;1.73;0.90;;;;;;;;;;5027062;28;20219;-72
2022/05/25 13:52:11;;;;;;;1.77;0.90;;;;;;;;;;5022330;28;20674;-74
2022/05/25 13:54:38;;;;;;;1.23;1.00;;;;;;;;;;5024124;28;20197;-73
2022/05/25 13:57:04;;;;;;;3.17;0.90;;;;;;;;;;5029913;28;20244;-72
2022/05/25 13:59:34;;;;;;;1.63;0.93;;;;;;;;;;5025002;28;20199;-74
2022/05/25 14:02:21;;;;;;;2.63;1.10;;;;;;;;;;5027294;28;20627;-73
2022/05/25 14:04:48;;;;;;;2.00;0.90;;;;;;;;;;5016824;28;20257;-73
2022/05/25 14:07:37;;;;;;;1.80;0.90;;;;;;;;;;5026840;28;20280;-73
2022/05/25 14:13:19;;;;;;;1.30;0.90;;;;;;;;;;5025387;28;20206;-72
2022/05/25 14:16:03;;;;;;;2.53;1.10;;;;;;;;;;5016617;28;20642;-73
2022/05/25 14:18:31;;;;;;;4.23;1.07;;;;;;;;;;5020656;28;20211;-73
2022/05/25 14:20:58;;;;;;;1.60;0.80;;;;;;;;;;5021461;28;20182;-73
2022/05/25 14:23:27;;;;;;;0.80;0.80;;;;;;;;;;5026496;28;20214;-74
2022/05/25 14:25:58;;;;;;;3.07;0.90;;;;;;;;;;5025656;28;20179;-72
2022/05/25 14:28:28;;;;;;;1.37;0.90;;;;;;;;;;5027464;28;20303;-72
2022/05/25 14:30:55;;;;;;;1.40;0.73;;;;;;;;;;5028562;28;20256;-72
2022/05/25 14:33:22;;;;;;;2.93;1.10;;;;;;;;;;5020753;28;20242;-73
2022/05/25 14:35:50;;;;;;;1.43;0.90;;;;;;;;;;5015821;28;20187;-72
2022/05/25 14:38:17;;;;;;;1.63;0.80;;;;;;;;;;5017082;28;20263;-72
2022/05/25 14:40:46;;;;;;;1.53;0.70;;;;;;;;;;5031568;28;20683;-72
2022/05/25 14:43:13;;;;;;;2.37;0.77;;;;;;;;;;5034859;28;20171;-72
2022/05/25 14:45:39;;;;;;;1.27;0.83;;;;;;;;;;5020132;28;20187;-72
2022/05/25 14:48:07;;;;;;;1.83;0.73;;;;;;;;;;5020211;28;20199;-73
2022/05/25 14:50:35;;;;;;;2.87;1.10;;;;;;;;;;5013478;28;20212;-72
2022/05/25 14:53:09;;;;;;;2.00;1.23;;;;;;;;;;5021715;28;20193;-72
2022/05/25 14:55:47;;;;;;;3.87;0.90;;;;;;;;;;5025380;28;20203;-72
2022/05/25 14:58:22;;;;;;;1.53;0.90;;;;;;;;;;5020194;28;20296;-72
2022/05/25 15:00:51;;;;;;;1.40;0.80;;;;;;;;;;5024841;28;20213;-73
2022/05/25 15:03:29;;;;;;;1.13;0.87;;;;;;;;;;5026355;28;20741;-72
2022/05/25 15:06:07;;;;;;;1.60;0.90;;;;;;;;;;5026048;28;20192;-72
2022/05/25 15:08:39;;;;;;;1.20;0.80;;;;;;;;;;5025855;28;20182;-72
2022/05/25 15:11:37;;;;;;;1.17;0.80;;;;;;;;;;5025701;28;20227;-73
2022/05/25 15:19:40;;;;;;;1.53;0.80;;;;;;;;;;5025841;28;20292;-72
2022/05/25 15:22:11;;;;;;;1.30;0.80;;;;;;;;;;5017126;28;20178;-73
2022/05/25 15:24:37;;;;;;;1.97;0.80;;;;;;;;;;5025396;28;20618;-73
2022/05/25 15:27:04;;;;;;;1.37;0.80;;;;;;;;;;5025931;28;20186;-73
2022/05/25 15:29:35;;;;;;;1.90;0.80;;;;;;;;;;5024162;28;20209;-73
2022/05/25 15:32:02;;;;;;;3.30;0.80;;;;;;;;;;5025127;28;20179;-73
2022/05/25 15:34:29;;;;;;;1.30;0.80;;;;;;;;;;5023730;28;20187;-73
2022/05/25 15:36:56;;;;;;;2.00;0.80;;;;;;;;;;5023880;28;20206;-72
2022/05/25 15:39:22;;;;;;;0.80;0.70;;;;;;;;;;5024940;28;20217;-73